sensor_id;sensor_type;location;lat;lon;timestamp;P1;durP1;ratioP1;P2;durP2;ratioP2
3307;SDS011;1666;48.898;9.182;2022-08-11T00:00:00;2.90;;;2.00;;
3307;SDS011;1666;48.898;9.182;2022-08-11T00:02:35;3.10;;;2.25;;
3307;SDS011;1666;48.898;9.182;2022-08-11T00:05:08;3.65;;;2.33;;
3307;SDS011;1666;48.898;9.182;2022-08-11T00:07:41;4.97;;;2.10;;
3307;SDS011;1666;48.898;9.182;2022-08-11T00:10:13;3.80;;;2.30;;
3307;SDS011;1666;48.898;9.182;2022-08-11T00:12:49;3.22;;;2.10;;
3307;SDS011;1666;48.898;9.182;2022-08-11T00:15:24;4.05;;;2.00;;
3307;SDS011;1666;48.898;9.182;2022-08-11T00:17:56;3.85;;;2.03;;
3307;SDS011;1666;48.898;9.182;2022-08-11T00:20:29;6.20;;;2.25;;
3307;SDS011;1666;48.898;9.182;2022-08-11T00:23:00;3.20;;;2.60;;
3307;SDS011;1666;48.898;9.182;2022-08-11T00:25:36;3.47;;;2.08;;
3307;SDS011;1666;48.898;9.182;2022-08-11T00:28:23;4.28;;;2.38;;
3307;SDS011;1666;48.898;9.182;2022-08-11T00:30:57;3.78;;;2.20;;
3307;SDS011;1666;48.898;9.182;2022-08-11T00:33:33;4.13;;;2.67;;
3307;SDS011;1666;48.898;9.182;2022-08-11T00:36:11;3.13;;;2.30;;
3307;SDS011;1666;48.898;9.182;2022-08-11T00:38:51;3.75;;;2.60;;
3307;SDS011;1666;48.898;9.182;2022-08-11T00:41:30;5.10;;;2.78;;
3307;SDS011;1666;48.898;9.182;2022-08-11T00:44:09;4.32;;;2.40;;
3307;SDS011;1666;48.898;9.182;2022-08-11T00:46:58;4.57;;;2.92;;
3307;SDS011;1666;48.898;9.182;2022-08-11T00:49:42;4.05;;;2.33;;
3307;SDS011;1666;48.898;9.182;2022-08-11T00:52:28;7.35;;;2.67;;
3307;SDS011;1666;48.898;9.182;2022-08-11T01:01:26;4.95;;;2.72;;
3307;SDS011;1666;48.898;9.182;2022-08-11T01:19:34;6.88;;;2.72;;
3307;SDS011;1666;48.898;9.182;2022-08-11T01:32:25;4.78;;;3.15;;
3307;SDS011;1666;48.898;9.182;2022-08-11T01:35:43;7.25;;;2.90;;
3307;SDS011;1666;48.898;9.182;2022-08-11T01:38:46;3.53;;;3.15;;
3307;SDS011;1666;48.898;9.182;2022-08-11T01:41:40;4.03;;;2.80;;
3307;SDS011;1666;48.898;9.182;2022-08-11T01:44:51;5.43;;;3.03;;
3307;SDS011;1666;48.898;9.182;2022-08-11T01:47:54;7.43;;;3.30;;
3307;SDS011;1666;48.898;9.182;2022-08-11T01:53:42;3.00;;;2.70;;
3307;SDS011;1666;48.898;9.182;2022-08-11T01:56:23;4.03;;;3.30;;
3307;SDS011;1666;48.898;9.182;2022-08-11T01:59:07;5.07;;;3.20;;
3307;SDS011;1666;48.898;9.182;2022-08-11T02:01:46;4.65;;;3.38;;
3307;SDS011;1666;48.898;9.182;2022-08-11T02:04:35;3.20;;;2.80;;
3307;SDS011;1666;48.898;9.182;2022-08-11T02:07:16;3.50;;;2.90;;
3307;SDS011;1666;48.898;9.182;2022-08-11T02:09:55;4.38;;;2.92;;
3307;SDS011;1666;48.898;9.182;2022-08-11T02:13:05;3.47;;;2.60;;
3307;SDS011;1666;48.898;9.182;2022-08-11T02:16:14;5.15;;;2.90;;
3307;SDS011;1666;48.898;9.182;2022-08-11T02:18:51;4.03;;;2.92;;
3307;SDS011;1666;48.898;9.182;2022-08-11T02:21:48;4.55;;;2.80;;
3307;SDS011;1666;48.898;9.182;2022-08-11T02:24:40;4.00;;;2.75;;
3307;SDS011;1666;48.898;9.182;2022-08-11T02:27:18;4.97;;;2.90;;
3307;SDS011;1666;48.898;9.182;2022-08-11T02:29:53;6.05;;;2.55;;
3307;SDS011;1666;48.898;9.182;2022-08-11T02:32:34;3.80;;;3.17;;
3307;SDS011;1666;48.898;9.182;2022-08-11T02:35:21;3.65;;;3.00;;
3307;SDS011;1666;48.898;9.182;2022-08-11T02:38:05;3.35;;;2.88;;
3307;SDS011;1666;48.898;9.182;2022-08-11T02:40:49;6.38;;;3.15;;
3307;SDS011;1666;48.898;9.182;2022-08-11T02:43:30;3.78;;;2.70;;
3307;SDS011;1666;48.898;9.182;2022-08-11T02:46:20;4.15;;;2.53;;
3307;SDS011;1666;48.898;9.182;2022-08-11T02:48:58;3.50;;;2.85;;
3307;SDS011;1666;48.898;9.182;2022-08-11T02:51:58;3.28;;;2.58;;
3307;SDS011;1666;48.898;9.182;2022-08-11T02:54:36;3.85;;;2.72;;
3307;SDS011;1666;48.898;9.182;2022-08-11T02:57:19;7.50;;;2.75;;
3307;SDS011;1666;48.898;9.182;2022-08-11T02:59:52;6.20;;;2.75;;
3307;SDS011;1666;48.898;9.182;2022-08-11T03:02:37;3.25;;;2.83;;
3307;SDS011;1666;48.898;9.182;2022-08-11T03:05:17;4.78;;;2.90;;
3307;SDS011;1666;48.898;9.182;2022-08-11T03:08:00;5.78;;;2.78;;
3307;SDS011;1666;48.898;9.182;2022-08-11T03:10:47;6.25;;;3.45;;
3307;SDS011;1666;48.898;9.182;2022-08-11T03:13:45;6.05;;;2.78;;
3307;SDS011;1666;48.898;9.182;2022-08-11T03:16:49;3.50;;;2.53;;
3307;SDS011;1666;48.898;9.182;2022-08-11T03:19:27;4.60;;;2.80;;
3307;SDS011;1666;48.898;9.182;2022-08-11T03:22:04;3.05;;;2.72;;
3307;SDS011;1666;48.898;9.182;2022-08-11T03:24:42;3.50;;;2.67;;
3307;SDS011;1666;48.898;9.182;2022-08-11T03:27:30;3.47;;;2.78;;
3307;SDS011;1666;48.898;9.182;2022-08-11T03:30:11;4.38;;;2.88;;
3307;SDS011;1666;48.898;9.182;2022-08-11T03:32:49;3.72;;;2.40;;
3307;SDS011;1666;48.898;9.182;2022-08-11T03:38:11;3.75;;;2.88;;
3307;SDS011;1666;48.898;9.182;2022-08-11T03:40:49;4.32;;;2.95;;
3307;SDS011;1666;48.898;9.182;2022-08-11T03:44:02;5.78;;;3.35;;
3307;SDS011;1666;48.898;9.182;2022-08-11T03:46:48;5.47;;;3.30;;
3307;SDS011;1666;48.898;9.182;2022-08-11T03:49:36;3.20;;;2.90;;
3307;SDS011;1666;48.898;9.182;2022-08-11T03:52:15;3.72;;;2.42;;
3307;SDS011;1666;48.898;9.182;2022-08-11T03:54:53;5.30;;;2.83;;
3307;SDS011;1666;48.898;9.182;2022-08-11T04:00:49;3.92;;;2.90;;
3307;SDS011;1666;48.898;9.182;2022-08-11T04:03:56;7.60;;;3.05;;
3307;SDS011;1666;48.898;9.182;2022-08-11T04:06:43;4.47;;;3.10;;
3307;SDS011;1666;48.898;9.182;2022-08-11T04:12:34;5.25;;;2.80;;
3307;SDS011;1666;48.898;9.182;2022-08-11T04:15:47;3.72;;;3.00;;
3307;SDS011;1666;48.898;9.182;2022-08-11T04:18:46;5.57;;;3.20;;
3307;SDS011;1666;48.898;9.182;2022-08-11T04:27:42;5.32;;;3.25;;
3307;SDS011;1666;48.898;9.182;2022-08-11T04:30:29;8.98;;;3.05;;
3307;SDS011;1666;48.898;9.182;2022-08-11T04:33:29;5.75;;;3.58;;
3307;SDS011;1666;48.898;9.182;2022-08-11T04:36:19;5.47;;;3.40;;
3307;SDS011;1666;48.898;9.182;2022-08-11T04:39:17;4.35;;;3.03;;
3307;SDS011;1666;48.898;9.182;2022-08-11T04:42:06;9.70;;;3.35;;
3307;SDS011;1666;48.898;9.182;2022-08-11T04:45:06;7.75;;;4.20;;
3307;SDS011;1666;48.898;9.182;2022-08-11T04:48:06;4.95;;;3.03;;
3307;SDS011;1666;48.898;9.182;2022-08-11T04:51:08;5.97;;;3.38;;
3307;SDS011;1666;48.898;9.182;2022-08-11T04:54:20;3.30;;;2.65;;
3307;SDS011;1666;48.898;9.182;2022-08-11T04:57:13;4.55;;;2.97;;
3307;SDS011;1666;48.898;9.182;2022-08-11T05:00:04;4.22;;;2.83;;
3307;SDS011;1666;48.898;9.182;2022-08-11T05:06:07;5.00;;;2.60;;
3307;SDS011;1666;48.898;9.182;2022-08-11T05:09:06;5.82;;;2.88;;
3307;SDS011;1666;48.898;9.182;2022-08-11T05:11:57;4.00;;;2.65;;
3307;SDS011;1666;48.898;9.182;2022-08-11T05:14:48;5.93;;;3.00;;
3307;SDS011;1666;48.898;9.182;2022-08-11T05:17:34;5.13;;;2.80;;
3307;SDS011;1666;48.898;9.182;2022-08-11T05:20:20;4.70;;;3.08;;
3307;SDS011;1666;48.898;9.182;2022-08-11T05:23:04;5.93;;;3.08;;
3307;SDS011;1666;48.898;9.182;2022-08-11T05:25:49;3.53;;;2.60;;
3307;SDS011;1666;48.898;9.182;2022-08-11T05:29:01;4.38;;;2.88;;
3307;SDS011;1666;48.898;9.182;2022-08-11T05:31:48;5.75;;;3.15;;
3307;SDS011;1666;48.898;9.182;2022-08-11T05:34:41;3.80;;;3.00;;
3307;SDS011;1666;48.898;9.182;2022-08-11T05:37:21;5.57;;;2.70;;
3307;SDS011;1666;48.898;9.182;2022-08-11T05:40:04;5.95;;;3.17;;
3307;SDS011;1666;48.898;9.182;2022-08-11T05:42:48;7.72;;;3.58;;
3307;SDS011;1666;48.898;9.182;2022-08-11T05:45:38;5.47;;;3.20;;
3307;SDS011;1666;48.898;9.182;2022-08-11T05:48:31;3.13;;;2.72;;
3307;SDS011;1666;48.898;9.182;2022-08-11T05:51:15;4.60;;;2.85;;
3307;SDS011;1666;48.898;9.182;2022-08-11T05:53:58;5.60;;;2.80;;
3307;SDS011;1666;48.898;9.182;2022-08-11T05:56:55;6.03;;;3.38;;
3307;SDS011;1666;48.898;9.182;2022-08-11T05:59:28;3.80;;;2.75;;
3307;SDS011;1666;48.898;9.182;2022-08-11T06:02:03;6.72;;;3.47;;
3307;SDS011;1666;48.898;9.182;2022-08-11T06:04:35;7.63;;;3.13;;
3307;SDS011;1666;48.898;9.182;2022-08-11T06:07:07;5.28;;;3.10;;
3307;SDS011;1666;48.898;9.182;2022-08-11T06:09:46;7.45;;;3.50;;
3307;SDS011;1666;48.898;9.182;2022-08-11T06:12:18;7.10;;;3.13;;
3307;SDS011;1666;48.898;9.182;2022-08-11T06:14:52;6.47;;;3.17;;
3307;SDS011;1666;48.898;9.182;2022-08-11T06:17:27;5.47;;;3.10;;
3307;SDS011;1666;48.898;9.182;2022-08-11T06:20:05;7.53;;;3.10;;
3307;SDS011;1666;48.898;9.182;2022-08-11T06:22:39;13.43;;;3.80;;
3307;SDS011;1666;48.898;9.182;2022-08-11T06:25:18;5.80;;;2.78;;
3307;SDS011;1666;48.898;9.182;2022-08-11T06:27:53;6.65;;;2.75;;
3307;SDS011;1666;48.898;9.182;2022-08-11T06:30:31;5.80;;;2.97;;
3307;SDS011;1666;48.898;9.182;2022-08-11T06:33:09;6.97;;;3.00;;
3307;SDS011;1666;48.898;9.182;2022-08-11T06:35:45;5.78;;;2.88;;
3307;SDS011;1666;48.898;9.182;2022-08-11T06:38:25;5.35;;;3.38;;
3307;SDS011;1666;48.898;9.182;2022-08-11T06:41:06;8.13;;;3.08;;
3307;SDS011;1666;48.898;9.182;2022-08-11T06:44:06;4.82;;;3.15;;
3307;SDS011;1666;48.898;9.182;2022-08-11T06:46:44;5.50;;;2.72;;
3307;SDS011;1666;48.898;9.182;2022-08-11T06:49:21;6.07;;;2.72;;
3307;SDS011;1666;48.898;9.182;2022-08-11T06:52:13;7.32;;;3.20;;
3307;SDS011;1666;48.898;9.182;2022-08-11T06:55:04;4.90;;;3.00;;
3307;SDS011;1666;48.898;9.182;2022-08-11T06:57:55;5.35;;;2.53;;
3307;SDS011;1666;48.898;9.182;2022-08-11T07:00:38;4.22;;;2.85;;
3307;SDS011;1666;48.898;9.182;2022-08-11T07:03:10;5.63;;;3.08;;
3307;SDS011;1666;48.898;9.182;2022-08-11T07:05:44;6.53;;;3.22;;
3307;SDS011;1666;48.898;9.182;2022-08-11T07:11:27;10.30;;;2.97;;
3307;SDS011;1666;48.898;9.182;2022-08-11T07:14:40;3.58;;;2.97;;
3307;SDS011;1666;48.898;9.182;2022-08-11T07:17:30;4.10;;;2.60;;
3307;SDS011;1666;48.898;9.182;2022-08-11T07:20:06;4.65;;;3.10;;
3307;SDS011;1666;48.898;9.182;2022-08-11T07:22:55;6.25;;;3.20;;
3307;SDS011;1666;48.898;9.182;2022-08-11T07:25:40;5.13;;;2.78;;
3307;SDS011;1666;48.898;9.182;2022-08-11T07:28:25;7.55;;;3.03;;
3307;SDS011;1666;48.898;9.182;2022-08-11T07:31:10;4.70;;;2.83;;
3307;SDS011;1666;48.898;9.182;2022-08-11T07:33:45;4.90;;;2.85;;
3307;SDS011;1666;48.898;9.182;2022-08-11T07:36:39;3.80;;;2.70;;
3307;SDS011;1666;48.898;9.182;2022-08-11T07:39:18;4.30;;;2.70;;
3307;SDS011;1666;48.898;9.182;2022-08-11T07:41:55;3.10;;;2.70;;
3307;SDS011;1666;48.898;9.182;2022-08-11T07:44:27;6.55;;;2.92;;
3307;SDS011;1666;48.898;9.182;2022-08-11T07:47:22;2.90;;;2.60;;
3307;SDS011;1666;48.898;9.182;2022-08-11T07:50:06;5.38;;;2.80;;
3307;SDS011;1666;48.898;9.182;2022-08-11T07:52:50;7.45;;;3.30;;
3307;SDS011;1666;48.898;9.182;2022-08-11T07:55:29;4.72;;;2.83;;
3307;SDS011;1666;48.898;9.182;2022-08-11T07:58:17;4.53;;;2.90;;
3307;SDS011;1666;48.898;9.182;2022-08-11T08:01:18;3.15;;;2.80;;
3307;SDS011;1666;48.898;9.182;2022-08-11T08:04:03;5.13;;;2.67;;
3307;SDS011;1666;48.898;9.182;2022-08-11T08:06:50;4.38;;;2.80;;
3307;SDS011;1666;48.898;9.182;2022-08-11T08:09:34;6.50;;;2.72;;
3307;SDS011;1666;48.898;9.182;2022-08-11T08:12:21;7.88;;;2.90;;
3307;SDS011;1666;48.898;9.182;2022-08-11T08:15:06;3.83;;;2.70;;
3307;SDS011;1666;48.898;9.182;2022-08-11T08:17:51;9.35;;;2.60;;
3307;SDS011;1666;48.898;9.182;2022-08-11T08:20:45;6.63;;;2.42;;
3307;SDS011;1666;48.898;9.182;2022-08-11T08:23:18;2.35;;;2.15;;
3307;SDS011;1666;48.898;9.182;2022-08-11T08:25:59;5.70;;;2.72;;
3307;SDS011;1666;48.898;9.182;2022-08-11T08:28:44;7.60;;;2.67;;
3307;SDS011;1666;48.898;9.182;2022-08-11T08:31:14;7.00;;;2.97;;
3307;SDS011;1666;48.898;9.182;2022-08-11T08:33:41;4.50;;;2.85;;
3307;SDS011;1666;48.898;9.182;2022-08-11T08:36:12;4.32;;;2.92;;
3307;SDS011;1666;48.898;9.182;2022-08-11T08:38:47;7.68;;;2.92;;
3307;SDS011;1666;48.898;9.182;2022-08-11T08:41:21;4.35;;;2.58;;
3307;SDS011;1666;48.898;9.182;2022-08-11T08:43:59;3.65;;;2.88;;
3307;SDS011;1666;48.898;9.182;2022-08-11T08:46:53;3.05;;;2.70;;
3307;SDS011;1666;48.898;9.182;2022-08-11T08:49:28;4.63;;;2.53;;
3307;SDS011;1666;48.898;9.182;2022-08-11T08:52:07;5.63;;;2.55;;
3307;SDS011;1666;48.898;9.182;2022-08-11T08:55:00;3.67;;;2.55;;
3307;SDS011;1666;48.898;9.182;2022-08-11T08:57:34;5.00;;;2.30;;
3307;SDS011;1666;48.898;9.182;2022-08-11T09:00:09;5.10;;;2.28;;
3307;SDS011;1666;48.898;9.182;2022-08-11T09:02:48;2.70;;;2.20;;
3307;SDS011;1666;48.898;9.182;2022-08-11T09:05:18;3.10;;;2.17;;
3307;SDS011;1666;48.898;9.182;2022-08-11T09:07:51;3.88;;;2.20;;
3307;SDS011;1666;48.898;9.182;2022-08-11T09:10:23;4.60;;;2.45;;
3307;SDS011;1666;48.898;9.182;2022-08-11T09:12:56;3.60;;;2.40;;
3307;SDS011;1666;48.898;9.182;2022-08-11T09:15:30;4.55;;;2.50;;
3307;SDS011;1666;48.898;9.182;2022-08-11T09:18:03;9.73;;;2.55;;
3307;SDS011;1666;48.898;9.182;2022-08-11T09:20:35;5.68;;;2.30;;
3307;SDS011;1666;48.898;9.182;2022-08-11T09:23:07;3.85;;;2.28;;
3307;SDS011;1666;48.898;9.182;2022-08-11T09:26:10;7.50;;;2.40;;
3307;SDS011;1666;48.898;9.182;2022-08-11T09:28:56;2.60;;;2.40;;
3307;SDS011;1666;48.898;9.182;2022-08-11T09:31:32;2.42;;;2.00;;
3307;SDS011;1666;48.898;9.182;2022-08-11T09:34:06;5.55;;;2.50;;
3307;SDS011;1666;48.898;9.182;2022-08-11T09:36:37;5.30;;;2.15;;
3307;SDS011;1666;48.898;9.182;2022-08-11T09:39:22;2.72;;;2.05;;
3307;SDS011;1666;48.898;9.182;2022-08-11T09:42:04;4.75;;;1.90;;
3307;SDS011;1666;48.898;9.182;2022-08-11T09:44:41;4.18;;;2.00;;
3307;SDS011;1666;48.898;9.182;2022-08-11T09:47:21;3.67;;;2.10;;
3307;SDS011;1666;48.898;9.182;2022-08-11T09:49:55;2.20;;;2.00;;
3307;SDS011;1666;48.898;9.182;2022-08-11T09:52:31;2.22;;;1.90;;
3307;SDS011;1666;48.898;9.182;2022-08-11T09:55:26;3.83;;;2.00;;
3307;SDS011;1666;48.898;9.182;2022-08-11T09:57:57;3.63;;;2.03;;
3307;SDS011;1666;48.898;9.182;2022-08-11T10:01:01;2.75;;;2.20;;
3307;SDS011;1666;48.898;9.182;2022-08-11T10:03:36;4.40;;;2.38;;
3307;SDS011;1666;48.898;9.182;2022-08-11T10:06:09;6.25;;;1.90;;
3307;SDS011;1666;48.898;9.182;2022-08-11T10:09:00;2.13;;;1.90;;
3307;SDS011;1666;48.898;9.182;2022-08-11T10:11:34;3.08;;;1.95;;
3307;SDS011;1666;48.898;9.182;2022-08-11T10:14:06;3.85;;;2.08;;
3307;SDS011;1666;48.898;9.182;2022-08-11T10:16:59;3.25;;;1.80;;
3307;SDS011;1666;48.898;9.182;2022-08-11T10:19:36;5.78;;;2.20;;
3307;SDS011;1666;48.898;9.182;2022-08-11T10:22:07;6.05;;;2.35;;
3307;SDS011;1666;48.898;9.182;2022-08-11T10:24:53;2.00;;;1.80;;
3307;SDS011;1666;48.898;9.182;2022-08-11T10:27:38;1.90;;;1.70;;
3307;SDS011;1666;48.898;9.182;2022-08-11T10:30:33;8.98;;;1.92;;
3307;SDS011;1666;48.898;9.182;2022-08-11T10:33:16;2.05;;;1.67;;
3307;SDS011;1666;48.898;9.182;2022-08-11T10:36:05;4.72;;;2.28;;
3307;SDS011;1666;48.898;9.182;2022-08-11T10:38:42;3.97;;;1.98;;
3307;SDS011;1666;48.898;9.182;2022-08-11T10:41:17;4.85;;;1.90;;
3307;SDS011;1666;48.898;9.182;2022-08-11T10:44:00;3.10;;;2.00;;
3307;SDS011;1666;48.898;9.182;2022-08-11T10:46:31;7.47;;;1.90;;
3307;SDS011;1666;48.898;9.182;2022-08-11T10:49:17;3.35;;;2.00;;
3307;SDS011;1666;48.898;9.182;2022-08-11T10:51:50;4.18;;;2.30;;
3307;SDS011;1666;48.898;9.182;2022-08-11T10:54:36;5.45;;;1.90;;
3307;SDS011;1666;48.898;9.182;2022-08-11T10:57:21;4.15;;;2.13;;
3307;SDS011;1666;48.898;9.182;2022-08-11T11:00:05;4.95;;;1.83;;
3307;SDS011;1666;48.898;9.182;2022-08-11T11:02:40;2.72;;;1.65;;
3307;SDS011;1666;48.898;9.182;2022-08-11T11:05:31;4.13;;;2.15;;
3307;SDS011;1666;48.898;9.182;2022-08-11T11:08:24;5.35;;;2.00;;
3307;SDS011;1666;48.898;9.182;2022-08-11T11:11:10;1.88;;;1.63;;
3307;SDS011;1666;48.898;9.182;2022-08-11T11:13:44;2.47;;;1.80;;
3307;SDS011;1666;48.898;9.182;2022-08-11T11:16:31;4.25;;;2.20;;
3307;SDS011;1666;48.898;9.182;2022-08-11T11:19:21;3.53;;;2.00;;
3307;SDS011;1666;48.898;9.182;2022-08-11T11:21:54;2.35;;;1.75;;
3307;SDS011;1666;48.898;9.182;2022-08-11T11:24:53;5.97;;;2.03;;
3307;SDS011;1666;48.898;9.182;2022-08-11T11:27:31;2.88;;;1.73;;
3307;SDS011;1666;48.898;9.182;2022-08-11T11:30:13;3.28;;;1.65;;
3307;SDS011;1666;48.898;9.182;2022-08-11T11:32:46;3.65;;;1.90;;
3307;SDS011;1666;48.898;9.182;2022-08-11T11:35:34;3.72;;;1.88;;
3307;SDS011;1666;48.898;9.182;2022-08-11T11:38:10;3.13;;;1.67;;
3307;SDS011;1666;48.898;9.182;2022-08-11T11:40:43;1.80;;;1.60;;
3307;SDS011;1666;48.898;9.182;2022-08-11T11:43:34;2.63;;;1.80;;
3307;SDS011;1666;48.898;9.182;2022-08-11T11:46:05;2.17;;;1.80;;
3307;SDS011;1666;48.898;9.182;2022-08-11T11:48:36;2.13;;;1.85;;
3307;SDS011;1666;48.898;9.182;2022-08-11T11:51:06;3.85;;;1.95;;
3307;SDS011;1666;48.898;9.182;2022-08-11T11:53:40;3.25;;;1.88;;
3307;SDS011;1666;48.898;9.182;2022-08-11T11:56:14;3.78;;;2.00;;
3307;SDS011;1666;48.898;9.182;2022-08-11T11:58:45;2.75;;;2.17;;
3307;SDS011;1666;48.898;9.182;2022-08-11T12:01:28;4.38;;;1.65;;
3307;SDS011;1666;48.898;9.182;2022-08-11T12:04:00;4.32;;;1.67;;
3307;SDS011;1666;48.898;9.182;2022-08-11T12:06:33;3.13;;;1.95;;
3307;SDS011;1666;48.898;9.182;2022-08-11T12:09:05;4.20;;;2.10;;
3307;SDS011;1666;48.898;9.182;2022-08-11T12:11:38;2.90;;;1.92;;
3307;SDS011;1666;48.898;9.182;2022-08-11T12:14:20;4.22;;;1.85;;
3307;SDS011;1666;48.898;9.182;2022-08-11T12:16:53;3.35;;;1.80;;
3307;SDS011;1666;48.898;9.182;2022-08-11T12:19:25;2.00;;;1.80;;
3307;SDS011;1666;48.898;9.182;2022-08-11T12:22:01;2.45;;;1.80;;
3307;SDS011;1666;48.898;9.182;2022-08-11T12:24:44;4.00;;;1.80;;
3307;SDS011;1666;48.898;9.182;2022-08-11T12:27:29;2.20;;;1.50;;
3307;SDS011;1666;48.898;9.182;2022-08-11T12:30:09;4.72;;;1.75;;
3307;SDS011;1666;48.898;9.182;2022-08-11T12:32:41;3.22;;;1.90;;
3307;SDS011;1666;48.898;9.182;2022-08-11T12:35:13;10.02;;;1.90;;
3307;SDS011;1666;48.898;9.182;2022-08-11T12:37:44;6.45;;;1.73;;
3307;SDS011;1666;48.898;9.182;2022-08-11T12:40:23;2.28;;;1.75;;
3307;SDS011;1666;48.898;9.182;2022-08-11T12:43:29;7.70;;;1.83;;
3307;SDS011;1666;48.898;9.182;2022-08-11T12:46:23;3.00;;;1.52;;
3307;SDS011;1666;48.898;9.182;2022-08-11T12:48:58;2.25;;;1.80;;
3307;SDS011;1666;48.898;9.182;2022-08-11T12:52:03;5.18;;;1.92;;
3307;SDS011;1666;48.898;9.182;2022-08-11T12:54:43;6.20;;;1.60;;
3307;SDS011;1666;48.898;9.182;2022-08-11T12:57:25;5.50;;;1.60;;
3307;SDS011;1666;48.898;9.182;2022-08-11T13:00:13;5.28;;;1.58;;
3307;SDS011;1666;48.898;9.182;2022-08-11T13:02:57;5.68;;;1.95;;
3307;SDS011;1666;48.898;9.182;2022-08-11T13:05:40;2.33;;;1.67;;
3307;SDS011;1666;48.898;9.182;2022-08-11T13:08:11;3.70;;;1.80;;
3307;SDS011;1666;48.898;9.182;2022-08-11T13:10:43;3.97;;;1.80;;
3307;SDS011;1666;48.898;9.182;2022-08-11T13:13:29;2.17;;;1.50;;
3307;SDS011;1666;48.898;9.182;2022-08-11T13:16:26;5.57;;;1.60;;
3307;SDS011;1666;48.898;9.182;2022-08-11T13:18:57;2.85;;;1.30;;
3307;SDS011;1666;48.898;9.182;2022-08-11T13:21:28;5.18;;;1.50;;
3307;SDS011;1666;48.898;9.182;2022-08-11T13:23:59;3.78;;;1.40;;
3307;SDS011;1666;48.898;9.182;2022-08-11T13:26:30;1.85;;;1.60;;
3307;SDS011;1666;48.898;9.182;2022-08-11T13:29:16;2.08;;;1.60;;
3307;SDS011;1666;48.898;9.182;2022-08-11T13:31:53;4.88;;;1.60;;
3307;SDS011;1666;48.898;9.182;2022-08-11T13:34:26;3.58;;;1.40;;
3307;SDS011;1666;48.898;9.182;2022-08-11T13:36:58;5.45;;;1.60;;
3307;SDS011;1666;48.898;9.182;2022-08-11T13:39:31;1.98;;;1.33;;
3307;SDS011;1666;48.898;9.182;2022-08-11T13:42:03;2.08;;;1.48;;
3307;SDS011;1666;48.898;9.182;2022-08-11T13:44:34;7.45;;;1.67;;
3307;SDS011;1666;48.898;9.182;2022-08-11T13:47:09;2.22;;;1.33;;
3307;SDS011;1666;48.898;9.182;2022-08-11T13:49:41;2.28;;;1.65;;
3307;SDS011;1666;48.898;9.182;2022-08-11T13:52:13;5.03;;;1.73;;
3307;SDS011;1666;48.898;9.182;2022-08-11T13:54:45;2.83;;;1.50;;
3307;SDS011;1666;48.898;9.182;2022-08-11T13:57:16;1.67;;;1.58;;
3307;SDS011;1666;48.898;9.182;2022-08-11T14:00:07;3.42;;;1.80;;
3307;SDS011;1666;48.898;9.182;2022-08-11T14:02:56;3.55;;;1.63;;
3307;SDS011;1666;48.898;9.182;2022-08-11T14:05:28;5.40;;;1.40;;
3307;SDS011;1666;48.898;9.182;2022-08-11T14:08:06;2.38;;;1.65;;
3307;SDS011;1666;48.898;9.182;2022-08-11T14:10:59;2.28;;;1.23;;
3307;SDS011;1666;48.898;9.182;2022-08-11T14:14:06;5.10;;;1.55;;
3307;SDS011;1666;48.898;9.182;2022-08-11T14:16:44;2.35;;;1.50;;
3307;SDS011;1666;48.898;9.182;2022-08-11T14:19:20;3.38;;;1.70;;
3307;SDS011;1666;48.898;9.182;2022-08-11T14:21:52;3.90;;;1.45;;
3307;SDS011;1666;48.898;9.182;2022-08-11T14:24:34;5.13;;;1.85;;
3307;SDS011;1666;48.898;9.182;2022-08-11T14:27:06;4.72;;;1.85;;
3307;SDS011;1666;48.898;9.182;2022-08-11T14:29:58;2.88;;;1.45;;
3307;SDS011;1666;48.898;9.182;2022-08-11T14:32:29;3.20;;;1.45;;
3307;SDS011;1666;48.898;9.182;2022-08-11T14:35:20;1.83;;;1.35;;
3307;SDS011;1666;48.898;9.182;2022-08-11T14:37:51;3.63;;;1.60;;
3307;SDS011;1666;48.898;9.182;2022-08-11T14:40:22;5.10;;;1.40;;
3307;SDS011;1666;48.898;9.182;2022-08-11T14:43:04;2.80;;;1.50;;
3307;SDS011;1666;48.898;9.182;2022-08-11T14:46:07;3.47;;;1.50;;
3307;SDS011;1666;48.898;9.182;2022-08-11T14:48:50;4.25;;;1.83;;
3307;SDS011;1666;48.898;9.182;2022-08-11T14:51:23;1.88;;;1.30;;
3307;SDS011;1666;48.898;9.182;2022-08-11T14:53:54;3.88;;;1.60;;
3307;SDS011;1666;48.898;9.182;2022-08-11T14:56:44;2.35;;;1.27;;
3307;SDS011;1666;48.898;9.182;2022-08-11T14:59:12;2.47;;;1.45;;
3307;SDS011;1666;48.898;9.182;2022-08-11T15:01:42;2.80;;;2.00;;
3307;SDS011;1666;48.898;9.182;2022-08-11T15:04:25;2.17;;;1.80;;
3307;SDS011;1666;48.898;9.182;2022-08-11T15:07:04;2.38;;;1.60;;
3307;SDS011;1666;48.898;9.182;2022-08-11T15:09:42;1.70;;;1.60;;
3307;SDS011;1666;48.898;9.182;2022-08-11T15:12:33;1.90;;;1.50;;
3307;SDS011;1666;48.898;9.182;2022-08-11T15:15:05;2.67;;;1.58;;
3307;SDS011;1666;48.898;9.182;2022-08-11T15:17:50;3.17;;;1.42;;
3307;SDS011;1666;48.898;9.182;2022-08-11T15:20:22;1.87;;;1.13;;
3307;SDS011;1666;48.898;9.182;2022-08-11T15:23:10;3.33;;;1.15;;
3307;SDS011;1666;48.898;9.182;2022-08-11T15:25:54;3.28;;;1.80;;
3307;SDS011;1666;48.898;9.182;2022-08-11T15:28:26;3.53;;;1.40;;
3307;SDS011;1666;48.898;9.182;2022-08-11T15:31:10;2.38;;;1.20;;
3307;SDS011;1666;48.898;9.182;2022-08-11T15:33:56;6.43;;;2.40;;
3307;SDS011;1666;48.898;9.182;2022-08-11T15:36:44;5.68;;;1.67;;
3307;SDS011;1666;48.898;9.182;2022-08-11T15:39:33;3.15;;;1.85;;
3307;SDS011;1666;48.898;9.182;2022-08-11T15:42:26;2.58;;;1.30;;
3307;SDS011;1666;48.898;9.182;2022-08-11T15:45:11;4.18;;;1.70;;
3307;SDS011;1666;48.898;9.182;2022-08-11T15:47:58;3.53;;;1.50;;
3307;SDS011;1666;48.898;9.182;2022-08-11T15:50:32;4.80;;;1.60;;
3307;SDS011;1666;48.898;9.182;2022-08-11T15:53:08;1.85;;;1.42;;
3307;SDS011;1666;48.898;9.182;2022-08-11T15:55:48;2.85;;;1.45;;
3307;SDS011;1666;48.898;9.182;2022-08-11T15:58:20;4.25;;;1.70;;
3307;SDS011;1666;48.898;9.182;2022-08-11T16:01:04;2.92;;;1.70;;
3307;SDS011;1666;48.898;9.182;2022-08-11T16:03:52;4.05;;;1.45;;
3307;SDS011;1666;48.898;9.182;2022-08-11T16:06:40;2.17;;;1.60;;
3307;SDS011;1666;48.898;9.182;2022-08-11T16:09:19;4.00;;;1.80;;
3307;SDS011;1666;48.898;9.182;2022-08-11T16:11:59;4.45;;;1.70;;
3307;SDS011;1666;48.898;9.182;2022-08-11T16:14:32;2.20;;;1.60;;
3307;SDS011;1666;48.898;9.182;2022-08-11T16:17:17;2.97;;;1.58;;
3307;SDS011;1666;48.898;9.182;2022-08-11T16:19:50;1.70;;;1.60;;
3307;SDS011;1666;48.898;9.182;2022-08-11T16:22:23;3.90;;;1.60;;
3307;SDS011;1666;48.898;9.182;2022-08-11T16:25:06;3.20;;;1.77;;
3307;SDS011;1666;48.898;9.182;2022-08-11T16:28:03;3.38;;;1.67;;
3307;SDS011;1666;48.898;9.182;2022-08-11T16:30:40;2.75;;;1.92;;
3307;SDS011;1666;48.898;9.182;2022-08-11T16:33:12;2.20;;;1.50;;
3307;SDS011;1666;48.898;9.182;2022-08-11T16:36:05;3.25;;;1.63;;
3307;SDS011;1666;48.898;9.182;2022-08-11T16:38:48;4.40;;;1.60;;
3307;SDS011;1666;48.898;9.182;2022-08-11T16:41:21;5.15;;;1.50;;
3307;SDS011;1666;48.898;9.182;2022-08-11T16:44:09;4.18;;;1.90;;
3307;SDS011;1666;48.898;9.182;2022-08-11T16:47:04;3.10;;;1.40;;
3307;SDS011;1666;48.898;9.182;2022-08-11T16:49:37;1.95;;;1.60;;
3307;SDS011;1666;48.898;9.182;2022-08-11T16:52:17;1.90;;;1.70;;
3307;SDS011;1666;48.898;9.182;2022-08-11T16:54:48;2.53;;;1.60;;
3307;SDS011;1666;48.898;9.182;2022-08-11T16:57:20;1.60;;;1.50;;
3307;SDS011;1666;48.898;9.182;2022-08-11T17:00:07;3.67;;;1.88;;
3307;SDS011;1666;48.898;9.182;2022-08-11T17:02:41;1.85;;;1.55;;
3307;SDS011;1666;48.898;9.182;2022-08-11T17:05:25;5.03;;;1.65;;
3307;SDS011;1666;48.898;9.182;2022-08-11T17:08:20;4.45;;;1.80;;
3307;SDS011;1666;48.898;9.182;2022-08-11T17:11:19;3.92;;;2.20;;
3307;SDS011;1666;48.898;9.182;2022-08-11T17:14:06;2.85;;;1.75;;
3307;SDS011;1666;48.898;9.182;2022-08-11T17:16:42;5.70;;;2.40;;
3307;SDS011;1666;48.898;9.182;2022-08-11T17:19:17;2.45;;;1.90;;
3307;SDS011;1666;48.898;9.182;2022-08-11T17:22:10;3.00;;;1.80;;
3307;SDS011;1666;48.898;9.182;2022-08-11T17:24:52;4.95;;;1.80;;
3307;SDS011;1666;48.898;9.182;2022-08-11T17:27:25;3.78;;;1.80;;
3307;SDS011;1666;48.898;9.182;2022-08-11T17:29:58;3.25;;;1.60;;
3307;SDS011;1666;48.898;9.182;2022-08-11T17:32:34;7.93;;;1.58;;
3307;SDS011;1666;48.898;9.182;2022-08-11T17:35:26;4.45;;;1.90;;
3307;SDS011;1666;48.898;9.182;2022-08-11T17:38:01;2.15;;;1.65;;
3307;SDS011;1666;48.898;9.182;2022-08-11T17:40:34;4.38;;;1.75;;
3307;SDS011;1666;48.898;9.182;2022-08-11T17:43:26;2.30;;;2.10;;